sensor_id;sensor_type;location;lat;lon;timestamp;temperature;humidity
48988;DHT22;34799;51.440;-2.534;2023-05-29T00:00:55;13.50;99.90
48988;DHT22;34799;51.440;-2.534;2023-05-29T00:03:22;13.40;99.90
48988;DHT22;34799;51.440;-2.534;2023-05-29T00:05:49;13.40;99.90
48988;DHT22;34799;51.440;-2.534;2023-05-29T00:08:16;13.40;99.90
48988;DHT22;34799;51.440;-2.534;2023-05-29T00:10:43;13.30;99.90
48988;DHT22;34799;51.440;-2.534;2023-05-29T00:13:10;13.30;99.90
48988;DHT22;34799;51.440;-2.534;2023-05-29T00:15:37;13.20;99.90
48988;DHT22;34799;51.440;-2.534;2023-05-29T00:18:04;13.20;99.90
48988;DHT22;34799;51.440;-2.534;2023-05-29T00:20:32;13.20;99.90
48988;DHT22;34799;51.440;-2.534;2023-05-29T00:23:03;13.20;99.90
48988;DHT22;34799;51.440;-2.534;2023-05-29T00:25:31;13.20;99.90
48988;DHT22;34799;51.440;-2.534;2023-05-29T00:27:58;13.10;99.90
48988;DHT22;34799;51.440;-2.534;2023-05-29T00:30:25;13.10;99.90
48988;DHT22;34799;51.440;-2.534;2023-05-29T00:32:52;13.60;99.90
48988;DHT22;34799;51.440;-2.534;2023-05-29T00:35:21;11.50;99.90
48988;DHT22;34799;51.440;-2.534;2023-05-29T00:37:48;12.90;99.90
48988;DHT22;34799;51.440;-2.534;2023-05-29T00:40:15;12.80;99.90
48988;DHT22;34799;51.440;-2.534;2023-05-29T00:42:45;12.80;99.90
48988;DHT22;34799;51.440;-2.534;2023-05-29T00:45:12;12.70;99.90
48988;DHT22;34799;51.440;-2.534;2023-05-29T00:47:41;12.70;99.90
48988;DHT22;34799;51.440;-2.534;2023-05-29T00:50:09;12.70;99.90
48988;DHT22;34799;51.440;-2.534;2023-05-29T00:52:37;12.60;99.90
48988;DHT22;34799;51.440;-2.534;2023-05-29T00:55:08;13.30;99.90
48988;DHT22;34799;51.440;-2.534;2023-05-29T00:57:36;12.60;99.90
48988;DHT22;34799;51.440;-2.534;2023-05-29T01:00:07;12.50;99.90
48988;DHT22;34799;51.440;-2.534;2023-05-29T01:02:45;12.50;99.90
48988;DHT22;34799;51.440;-2.534;2023-05-29T01:05:12;12.40;99.90
48988;DHT22;34799;51.440;-2.534;2023-05-29T01:07:40;10.40;99.90
48988;DHT22;34799;51.440;-2.534;2023-05-29T01:10:08;12.40;99.90
48988;DHT22;34799;51.440;-2.534;2023-05-29T01:12:43;12.30;99.90
48988;DHT22;34799;51.440;-2.534;2023-05-29T01:20:46;12.00;99.90
48988;DHT22;34799;51.440;-2.534;2023-05-29T01:26:29;12.00;99.90
48988;DHT22;34799;51.440;-2.534;2023-05-29T01:28:58;11.90;99.90
48988;DHT22;34799;51.440;-2.534;2023-05-29T01:31:28;12.10;99.90
48988;DHT22;34799;51.440;-2.534;2023-05-29T01:33:58;11.80;99.90
48988;DHT22;34799;51.440;-2.534;2023-05-29T01:36:27;11.80;99.90
48988;DHT22;34799;51.440;-2.534;2023-05-29T01:38:57;11.80;99.90
48988;DHT22;34799;51.440;-2.534;2023-05-29T01:41:25;11.40;99.90
48988;DHT22;34799;51.440;-2.534;2023-05-29T01:43:53;11.50;99.90
48988;DHT22;34799;51.440;-2.534;2023-05-29T01:46:21;11.70;99.90
48988;DHT22;34799;51.440;-2.534;2023-05-29T01:48:49;11.50;99.90
48988;DHT22;34799;51.440;-2.534;2023-05-29T01:51:18;11.50;99.90
48988;DHT22;34799;51.440;-2.534;2023-05-29T01:53:46;11.50;99.90
48988;DHT22;34799;51.440;-2.534;2023-05-29T01:56:13;11.50;99.90
48988;DHT22;34799;51.440;-2.534;2023-05-29T01:58:41;11.50;99.90
48988;DHT22;34799;51.440;-2.534;2023-05-29T02:01:08;11.50;99.90
48988;DHT22;34799;51.440;-2.534;2023-05-29T02:03:36;11.50;99.90
48988;DHT22;34799;51.440;-2.534;2023-05-29T02:06:03;11.60;99.90
48988;DHT22;34799;51.440;-2.534;2023-05-29T02:08:31;11.50;99.90
48988;DHT22;34799;51.440;-2.534;2023-05-29T02:11:00;11.40;99.90
48988;DHT22;34799;51.440;-2.534;2023-05-29T02:13:27;11.40;99.90
48988;DHT22;34799;51.440;-2.534;2023-05-29T02:15:54;11.10;99.90
48988;DHT22;34799;51.440;-2.534;2023-05-29T02:18:23;11.80;99.90
48988;DHT22;34799;51.440;-2.534;2023-05-29T02:20:50;11.30;99.90
48988;DHT22;34799;51.440;-2.534;2023-05-29T02:23:23;11.20;99.90
48988;DHT22;34799;51.440;-2.534;2023-05-29T02:25:50;11.20;99.90
48988;DHT22;34799;51.440;-2.534;2023-05-29T02:28:18;11.20;99.90
48988;DHT22;34799;51.440;-2.534;2023-05-29T02:30:45;10.80;99.90
48988;DHT22;34799;51.440;-2.534;2023-05-29T02:33:12;10.80;99.90
48988;DHT22;34799;51.440;-2.534;2023-05-29T02:35:39;11.50;99.90
48988;DHT22;34799;51.440;-2.534;2023-05-29T02:38:06;11.40;99.90
48988;DHT22;34799;51.440;-2.534;2023-05-29T02:40:33;11.10;99.90
48988;DHT22;34799;51.440;-2.534;2023-05-29T02:43:00;11.00;99.90
48988;DHT22;34799;51.440;-2.534;2023-05-29T02:45:27;10.90;99.90
48988;DHT22;34799;51.440;-2.534;2023-05-29T02:47:54;11.30;99.90
48988;DHT22;34799;51.440;-2.534;2023-05-29T02:50:21;10.80;99.90
48988;DHT22;34799;51.440;-2.534;2023-05-29T02:52:48;10.70;99.90
48988;DHT22;34799;51.440;-2.534;2023-05-29T02:55:16;10.80;99.90
48988;DHT22;34799;51.440;-2.534;2023-05-29T02:57:45;10.60;99.90
48988;DHT22;34799;51.440;-2.534;2023-05-29T03:00:12;10.60;99.90
48988;DHT22;34799;51.440;-2.534;2023-05-29T03:02:39;10.60;99.90
48988;DHT22;34799;51.440;-2.534;2023-05-29T03:05:07;10.60;99.90
48988;DHT22;34799;51.440;-2.534;2023-05-29T03:07:35;10.60;99.90
48988;DHT22;34799;51.440;-2.534;2023-05-29T03:10:03;11.90;99.90
48988;DHT22;34799;51.440;-2.534;2023-05-29T03:12:30;10.70;99.90
48988;DHT22;34799;51.440;-2.534;2023-05-29T03:14:57;10.70;99.90
48988;DHT22;34799;51.440;-2.534;2023-05-29T03:17:28;11.00;99.90
48988;DHT22;34799;51.440;-2.534;2023-05-29T03:19:55;10.70;99.90
48988;DHT22;34799;51.440;-2.534;2023-05-29T03:22:24;10.70;99.90
48988;DHT22;34799;51.440;-2.534;2023-05-29T03:24:51;10.30;99.90
48988;DHT22;34799;51.440;-2.534;2023-05-29T03:27:18;11.50;99.90
48988;DHT22;34799;51.440;-2.534;2023-05-29T03:29:54;11.60;99.90
48988;DHT22;34799;51.440;-2.534;2023-05-29T03:32:22;10.80;99.90
48988;DHT22;34799;51.440;-2.534;2023-05-29T03:34:51;10.60;99.90
48988;DHT22;34799;51.440;-2.534;2023-05-29T03:37:18;10.60;99.90
48988;DHT22;34799;51.440;-2.534;2023-05-29T03:39:46;10.70;99.90
48988;DHT22;34799;51.440;-2.534;2023-05-29T03:42:13;10.70;99.90
48988;DHT22;34799;51.440;-2.534;2023-05-29T03:44:42;11.60;99.90
48988;DHT22;34799;51.440;-2.534;2023-05-29T03:47:12;10.70;99.90
48988;DHT22;34799;51.440;-2.534;2023-05-29T03:49:40;10.80;99.90
48988;DHT22;34799;51.440;-2.534;2023-05-29T03:52:07;10.80;99.90
48988;DHT22;34799;51.440;-2.534;2023-05-29T03:54:35;10.80;99.90
48988;DHT22;34799;51.440;-2.534;2023-05-29T03:57:03;10.90;99.90
48988;DHT22;34799;51.440;-2.534;2023-05-29T03:59:30;11.10;99.90
48988;DHT22;34799;51.440;-2.534;2023-05-29T04:01:57;10.90;99.90
48988;DHT22;34799;51.440;-2.534;2023-05-29T04:04:24;10.90;99.90
48988;DHT22;34799;51.440;-2.534;2023-05-29T04:06:52;10.90;99.90
48988;DHT22;34799;51.440;-2.534;2023-05-29T04:09:19;10.90;99.90
48988;DHT22;34799;51.440;-2.534;2023-05-29T04:11:47;12.20;99.90
48988;DHT22;34799;51.440;-2.534;2023-05-29T04:14:16;11.00;99.90
48988;DHT22;34799;51.440;-2.534;2023-05-29T04:16:44;10.90;99.90
48988;DHT22;34799;51.440;-2.534;2023-05-29T04:19:12;10.80;99.90
48988;DHT22;34799;51.440;-2.534;2023-05-29T04:21:39;10.80;99.90
48988;DHT22;34799;51.440;-2.534;2023-05-29T04:24:06;10.70;99.90
48988;DHT22;34799;51.440;-2.534;2023-05-29T04:26:34;10.70;99.90
48988;DHT22;34799;51.440;-2.534;2023-05-29T04:29:02;10.50;99.90
48988;DHT22;34799;51.440;-2.534;2023-05-29T04:31:32;11.00;99.90
48988;DHT22;34799;51.440;-2.534;2023-05-29T04:33:59;11.20;99.90
48988;DHT22;34799;51.440;-2.534;2023-05-29T04:36:28;10.60;99.90
48988;DHT22;34799;51.440;-2.534;2023-05-29T04:39:05;10.60;99.90
48988;DHT22;34799;51.440;-2.534;2023-05-29T04:41:35;10.60;99.90
48988;DHT22;34799;51.440;-2.534;2023-05-29T04:44:06;10.30;99.90
48988;DHT22;34799;51.440;-2.534;2023-05-29T04:46:42;10.60;99.90
48988;DHT22;34799;51.440;-2.534;2023-05-29T04:49:11;10.70;99.90
48988;DHT22;34799;51.440;-2.534;2023-05-29T04:51:40;10.90;99.90
48988;DHT22;34799;51.440;-2.534;2023-05-29T04:54:08;11.30;99.90
48988;DHT22;34799;51.440;-2.534;2023-05-29T04:56:39;10.60;99.90
48988;DHT22;34799;51.440;-2.534;2023-05-29T04:59:10;10.70;99.90
48988;DHT22;34799;51.440;-2.534;2023-05-29T05:01:37;11.30;99.90
48988;DHT22;34799;51.440;-2.534;2023-05-29T05:04:04;10.90;99.90
48988;DHT22;34799;51.440;-2.534;2023-05-29T05:06:31;10.90;99.90
48988;DHT22;34799;51.440;-2.534;2023-05-29T05:08:58;11.00;99.90
48988;DHT22;34799;51.440;-2.534;2023-05-29T05:11:27;11.30;99.90
48988;DHT22;34799;51.440;-2.534;2023-05-29T05:13:54;11.10;99.90
48988;DHT22;34799;51.440;-2.534;2023-05-29T05:16:21;11.00;99.90
48988;DHT22;34799;51.440;-2.534;2023-05-29T05:18:49;10.90;99.90
48988;DHT22;34799;51.440;-2.534;2023-05-29T05:21:18;10.90;99.90
48988;DHT22;34799;51.440;-2.534;2023-05-29T05:23:46;10.90;99.90
48988;DHT22;34799;51.440;-2.534;2023-05-29T05:26:20;11.50;99.90
48988;DHT22;34799;51.440;-2.534;2023-05-29T05:28:47;10.90;99.90
48988;DHT22;34799;51.440;-2.534;2023-05-29T05:31:14;10.90;99.90
48988;DHT22;34799;51.440;-2.534;2023-05-29T05:33:41;10.90;99.90
48988;DHT22;34799;51.440;-2.534;2023-05-29T05:36:09;10.90;99.90
48988;DHT22;34799;51.440;-2.534;2023-05-29T05:38:38;11.00;99.90
48988;DHT22;34799;51.440;-2.534;2023-05-29T05:41:06;10.90;99.90
48988;DHT22;34799;51.440;-2.534;2023-05-29T05:43:34;11.00;99.90
48988;DHT22;34799;51.440;-2.534;2023-05-29T05:46:07;11.00;99.90
48988;DHT22;34799;51.440;-2.534;2023-05-29T05:48:37;11.00;99.90
48988;DHT22;34799;51.440;-2.534;2023-05-29T05:51:05;11.00;99.90
48988;DHT22;34799;51.440;-2.534;2023-05-29T05:53:33;11.00;99.90
48988;DHT22;34799;51.440;-2.534;2023-05-29T05:56:00;11.10;99.90
48988;DHT22;34799;51.440;-2.534;2023-05-29T05:58:28;11.20;99.90
48988;DHT22;34799;51.440;-2.534;2023-05-29T06:00:56;11.20;99.90
48988;DHT22;34799;51.440;-2.534;2023-05-29T06:03:27;11.40;99.90
48988;DHT22;34799;51.440;-2.534;2023-05-29T06:06:00;11.10;99.90
48988;DHT22;34799;51.440;-2.534;2023-05-29T06:08:30;11.10;99.90
48988;DHT22;34799;51.440;-2.534;2023-05-29T06:10:57;11.20;99.90
48988;DHT22;34799;51.440;-2.534;2023-05-29T06:13:24;11.70;99.90
48988;DHT22;34799;51.440;-2.534;2023-05-29T06:15:58;11.30;99.90
48988;DHT22;34799;51.440;-2.534;2023-05-29T06:18:25;11.30;99.90
48988;DHT22;34799;51.440;-2.534;2023-05-29T06:20:53;11.30;99.90
48988;DHT22;34799;51.440;-2.534;2023-05-29T06:23:21;12.00;99.90
48988;DHT22;34799;51.440;-2.534;2023-05-29T06:25:49;11.30;99.90
48988;DHT22;34799;51.440;-2.534;2023-05-29T06:28:16;11.40;99.90
48988;DHT22;34799;51.440;-2.534;2023-05-29T06:30:43;11.70;99.90
48988;DHT22;34799;51.440;-2.534;2023-05-29T06:33:14;11.50;99.90
48988;DHT22;34799;51.440;-2.534;2023-05-29T06:35:41;11.50;99.90
48988;DHT22;34799;51.440;-2.534;2023-05-29T06:38:08;11.50;99.90
48988;DHT22;34799;51.440;-2.534;2023-05-29T06:40:50;11.60;99.90
48988;DHT22;34799;51.440;-2.534;2023-05-29T06:43:19;11.70;99.90
48988;DHT22;34799;51.440;-2.534;2023-05-29T06:45:47;11.80;99.90
48988;DHT22;34799;51.440;-2.534;2023-05-29T06:48:16;11.70;99.90
48988;DHT22;34799;51.440;-2.534;2023-05-29T06:50:50;11.50;99.90
48988;DHT22;34799;51.440;-2.534;2023-05-29T06:53:46;11.50;99.90
48988;DHT22;34799;51.440;-2.534;2023-05-29T06:56:14;11.60;99.90
48988;DHT22;34799;51.440;-2.534;2023-05-29T06:58:43;11.60;99.90
48988;DHT22;34799;51.440;-2.534;2023-05-29T07:01:14;11.70;99.90
48988;DHT22;34799;51.440;-2.534;2023-05-29T07:04:03;11.80;99.90
48988;DHT22;34799;51.440;-2.534;2023-05-29T07:06:32;11.90;99.90
48988;DHT22;34799;51.440;-2.534;2023-05-29T07:09:00;12.00;99.90
48988;DHT22;34799;51.440;-2.534;2023-05-29T07:11:28;12.10;99.90
48988;DHT22;34799;51.440;-2.534;2023-05-29T07:13:55;12.00;99.90
48988;DHT22;34799;51.440;-2.534;2023-05-29T07:16:25;12.00;99.90
48988;DHT22;34799;51.440;-2.534;2023-05-29T07:18:58;12.00;99.90
48988;DHT22;34799;51.440;-2.534;2023-05-29T07:21:27;12.20;99.90
48988;DHT22;34799;51.440;-2.534;2023-05-29T07:23:55;12.00;99.90
48988;DHT22;34799;51.440;-2.534;2023-05-29T07:26:23;12.60;99.90
48988;DHT22;34799;51.440;-2.534;2023-05-29T07:28:51;12.00;99.90
48988;DHT22;34799;51.440;-2.534;2023-05-29T07:31:19;12.10;99.90
48988;DHT22;34799;51.440;-2.534;2023-05-29T07:33:47;12.80;99.90
48988;DHT22;34799;51.440;-2.534;2023-05-29T07:36:16;12.40;99.90
48988;DHT22;34799;51.440;-2.534;2023-05-29T07:38:48;12.40;99.90
48988;DHT22;34799;51.440;-2.534;2023-05-29T07:41:17;12.50;99.90
48988;DHT22;34799;51.440;-2.534;2023-05-29T07:43:52;12.40;99.90
48988;DHT22;34799;51.440;-2.534;2023-05-29T07:46:20;12.40;99.90
48988;DHT22;34799;51.440;-2.534;2023-05-29T07:48:51;12.50;99.90
48988;DHT22;34799;51.440;-2.534;2023-05-29T07:51:18;12.70;99.90
48988;DHT22;34799;51.440;-2.534;2023-05-29T07:53:47;12.60;99.90
48988;DHT22;34799;51.440;-2.534;2023-05-29T07:56:15;12.90;99.90
48988;DHT22;34799;51.440;-2.534;2023-05-29T07:58:43;12.90;99.90
48988;DHT22;34799;51.440;-2.534;2023-05-29T08:01:12;13.00;99.90
48988;DHT22;34799;51.440;-2.534;2023-05-29T08:03:44;13.10;99.90
48988;DHT22;34799;51.440;-2.534;2023-05-29T08:06:30;13.10;99.90
48988;DHT22;34799;51.440;-2.534;2023-05-29T08:09:01;13.70;99.90
48988;DHT22;34799;51.440;-2.534;2023-05-29T08:11:28;13.10;99.90
48988;DHT22;34799;51.440;-2.534;2023-05-29T08:13:56;13.20;99.90
48988;DHT22;34799;51.440;-2.534;2023-05-29T08:16:23;13.10;99.90
48988;DHT22;34799;51.440;-2.534;2023-05-29T08:18:50;13.10;99.90
48988;DHT22;34799;51.440;-2.534;2023-05-29T08:21:17;13.20;99.90
48988;DHT22;34799;51.440;-2.534;2023-05-29T08:23:44;13.30;99.90
48988;DHT22;34799;51.440;-2.534;2023-05-29T08:26:11;13.30;99.90
48988;DHT22;34799;51.440;-2.534;2023-05-29T08:28:40;13.60;99.90
48988;DHT22;34799;51.440;-2.534;2023-05-29T08:31:08;13.50;99.90
48988;DHT22;34799;51.440;-2.534;2023-05-29T08:33:35;13.40;99.90
48988;DHT22;34799;51.440;-2.534;2023-05-29T08:36:03;13.30;99.90
48988;DHT22;34799;51.440;-2.534;2023-05-29T08:38:31;13.20;99.90
48988;DHT22;34799;51.440;-2.534;2023-05-29T08:40:59;13.30;99.90
48988;DHT22;34799;51.440;-2.534;2023-05-29T08:43:31;13.50;99.90
48988;DHT22;34799;51.440;-2.534;2023-05-29T08:46:00;13.70;99.90
48988;DHT22;34799;51.440;-2.534;2023-05-29T08:48:29;13.90;99.90
48988;DHT22;34799;51.440;-2.534;2023-05-29T08:50:58;14.10;99.90
48988;DHT22;34799;51.440;-2.534;2023-05-29T08:53:26;14.10;99.90
48988;DHT22;34799;51.440;-2.534;2023-05-29T08:55:53;14.10;99.90
48988;DHT22;34799;51.440;-2.534;2023-05-29T08:58:22;14.20;99.90
48988;DHT22;34799;51.440;-2.534;2023-05-29T09:00:50;14.10;99.90
48988;DHT22;34799;51.440;-2.534;2023-05-29T09:03:18;14.40;99.90
48988;DHT22;34799;51.440;-2.534;2023-05-29T09:05:48;14.20;99.90
48988;DHT22;34799;51.440;-2.534;2023-05-29T09:08:15;14.30;99.90
48988;DHT22;34799;51.440;-2.534;2023-05-29T09:10:44;14.20;99.90
48988;DHT22;34799;51.440;-2.534;2023-05-29T09:13:12;14.10;99.90
48988;DHT22;34799;51.440;-2.534;2023-05-29T09:15:40;14.00;99.90
48988;DHT22;34799;51.440;-2.534;2023-05-29T09:18:11;14.00;99.90
48988;DHT22;34799;51.440;-2.534;2023-05-29T09:20:38;14.10;99.90
48988;DHT22;34799;51.440;-2.534;2023-05-29T09:23:07;13.90;99.90
48988;DHT22;34799;51.440;-2.534;2023-05-29T09:25:36;13.90;99.90
48988;DHT22;34799;51.440;-2.534;2023-05-29T09:28:08;14.00;99.90
48988;DHT22;34799;51.440;-2.534;2023-05-29T09:30:44;14.00;99.90
48988;DHT22;34799;51.440;-2.534;2023-05-29T09:33:13;14.00;99.90
48988;DHT22;34799;51.440;-2.534;2023-05-29T09:35:46;14.10;99.90
48988;DHT22;34799;51.440;-2.534;2023-05-29T09:38:16;14.40;99.90
48988;DHT22;34799;51.440;-2.534;2023-05-29T09:40:50;14.30;99.90
48988;DHT22;34799;51.440;-2.534;2023-05-29T09:43:18;14.60;99.90
48988;DHT22;34799;51.440;-2.534;2023-05-29T09:45:48;14.90;99.90
48988;DHT22;34799;51.440;-2.534;2023-05-29T09:48:23;15.10;99.90
48988;DHT22;34799;51.440;-2.534;2023-05-29T09:50:50;15.30;99.90
48988;DHT22;34799;51.440;-2.534;2023-05-29T09:53:23;15.40;99.90
48988;DHT22;34799;51.440;-2.534;2023-05-29T09:55:57;15.60;99.90
48988;DHT22;34799;51.440;-2.534;2023-05-29T09:58:28;15.80;99.90
48988;DHT22;34799;51.440;-2.534;2023-05-29T10:00:56;15.70;99.90
48988;DHT22;34799;51.440;-2.534;2023-05-29T10:03:24;15.50;99.90
48988;DHT22;34799;51.440;-2.534;2023-05-29T10:05:54;15.30;99.90
48988;DHT22;34799;51.440;-2.534;2023-05-29T10:08:23;15.20;99.90
48988;DHT22;34799;51.440;-2.534;2023-05-29T10:10:59;15.30;99.90
48988;DHT22;34799;51.440;-2.534;2023-05-29T10:13:32;15.30;99.90
48988;DHT22;34799;51.440;-2.534;2023-05-29T10:16:03;15.60;99.90
48988;DHT22;34799;51.440;-2.534;2023-05-29T10:18:38;15.80;99.90
48988;DHT22;34799;51.440;-2.534;2023-05-29T10:21:12;15.70;99.90
48988;DHT22;34799;51.440;-2.534;2023-05-29T10:23:45;15.70;99.90
48988;DHT22;34799;51.440;-2.534;2023-05-29T10:26:27;15.70;99.90
48988;DHT22;34799;51.440;-2.534;2023-05-29T10:29:05;15.90;99.90
48988;DHT22;34799;51.440;-2.534;2023-05-29T10:31:46;15.90;99.90
48988;DHT22;34799;51.440;-2.534;2023-05-29T10:34:14;15.90;99.90
48988;DHT22;34799;51.440;-2.534;2023-05-29T10:36:52;16.00;99.90
48988;DHT22;34799;51.440;-2.534;2023-05-29T10:39:23;16.00;99.90
48988;DHT22;34799;51.440;-2.534;2023-05-29T10:41:50;16.10;99.90
48988;DHT22;34799;51.440;-2.534;2023-05-29T10:49:29;16.50;99.70
48988;DHT22;34799;51.440;-2.534;2023-05-29T10:51:57;16.40;99.20
48988;DHT22;34799;51.440;-2.534;2023-05-29T10:54:26;16.40;99.70
48988;DHT22;34799;51.440;-2.534;2023-05-29T10:56:57;16.60;99.90
48988;DHT22;34799;51.440;-2.534;2023-05-29T10:59:25;16.70;99.90
48988;DHT22;34799;51.440;-2.534;2023-05-29T11:01:54;16.80;99.90
48988;DHT22;34799;51.440;-2.534;2023-05-29T11:06:53;16.60;99.90
48988;DHT22;34799;51.440;-2.534;2023-05-29T11:09:38;16.50;99.70
48988;DHT22;34799;51.440;-2.534;2023-05-29T11:12:16;16.50;99.90
48988;DHT22;34799;51.440;-2.534;2023-05-29T11:15:10;16.50;99.90
48988;DHT22;34799;51.440;-2.534;2023-05-29T11:20:06;16.40;99.90
48988;DHT22;34799;51.440;-2.534;2023-05-29T11:25:14;16.60;99.90
48988;DHT22;34799;51.440;-2.534;2023-05-29T11:27:44;16.80;99.90
48988;DHT22;34799;51.440;-2.534;2023-05-29T11:30:13;16.90;99.60
48988;DHT22;34799;51.440;-2.534;2023-05-29T11:32:42;17.00;99.50
48988;DHT22;34799;51.440;-2.534;2023-05-29T11:35:12;17.10;99.80
48988;DHT22;34799;51.440;-2.534;2023-05-29T11:37:43;17.30;99.10
48988;DHT22;34799;51.440;-2.534;2023-05-29T11:40:13;17.50;98.90
48988;DHT22;34799;51.440;-2.534;2023-05-29T11:42:46;17.40;98.90
48988;DHT22;34799;51.440;-2.534;2023-05-29T11:45:17;17.50;99.10
48988;DHT22;34799;51.440;-2.534;2023-05-29T11:48:01;17.50;98.60
48988;DHT22;34799;51.440;-2.534;2023-05-29T11:50:30;17.60;98.90
48988;DHT22;34799;51.440;-2.534;2023-05-29T11:52:59;17.70;98.50
48988;DHT22;34799;51.440;-2.534;2023-05-29T11:55:27;17.80;98.60
48988;DHT22;34799;51.440;-2.534;2023-05-29T11:57:59;17.90;98.20
48988;DHT22;34799;51.440;-2.534;2023-05-29T12:00:33;17.90;98.40
48988;DHT22;34799;51.440;-2.534;2023-05-29T12:03:00;17.90;98.20
48988;DHT22;34799;51.440;-2.534;2023-05-29T12:05:32;17.90;98.40
48988;DHT22;34799;51.440;-2.534;2023-05-29T12:07:59;18.00;98.40
48988;DHT22;34799;51.440;-2.534;2023-05-29T12:10:28;18.00;98.00
48988;DHT22;34799;51.440;-2.534;2023-05-29T12:12:59;18.20;98.30
48988;DHT22;34799;51.440;-2.534;2023-05-29T12:15:28;18.30;98.40
48988;DHT22;34799;51.440;-2.534;2023-05-29T12:17:55;18.50;98.00
48988;DHT22;34799;51.440;-2.534;2023-05-29T12:20:23;18.60;97.80
48988;DHT22;34799;51.440;-2.534;2023-05-29T12:23:00;18.60;97.90
48988;DHT22;34799;51.440;-2.534;2023-05-29T12:25:28;17.00;97.60
48988;DHT22;34799;51.440;-2.534;2023-05-29T12:27:58;18.70;97.60
48988;DHT22;34799;51.440;-2.534;2023-05-29T12:30:25;18.70;97.80
48988;DHT22;34799;51.440;-2.534;2023-05-29T12:32:55;17.20;97.30
48988;DHT22;34799;51.440;-2.534;2023-05-29T12:35:24;18.40;97.60
48988;DHT22;34799;51.440;-2.534;2023-05-29T12:38:04;18.40;98.10
48988;DHT22;34799;51.440;-2.534;2023-05-29T12:40:33;18.50;98.00
48988;DHT22;34799;51.440;-2.534;2023-05-29T12:43:07;18.80;97.90
48988;DHT22;34799;51.440;-2.534;2023-05-29T12:45:37;19.00;97.20
48988;DHT22;34799;51.440;-2.534;2023-05-29T12:48:06;19.00;97.30
48988;DHT22;34799;51.440;-2.534;2023-05-29T12:50:38;19.00;97.30
48988;DHT22;34799;51.440;-2.534;2023-05-29T12:53:08;18.80;96.90
48988;DHT22;34799;51.440;-2.534;2023-05-29T12:55:40;18.80;97.30
48988;DHT22;34799;51.440;-2.534;2023-05-29T12:58:10;18.80;97.30
48988;DHT22;34799;51.440;-2.534;2023-05-29T13:00:44;18.70;97.40
48988;DHT22;34799;51.440;-2.534;2023-05-29T13:03:13;19.00;97.20
48988;DHT22;34799;51.440;-2.534;2023-05-29T13:05:41;18.90;97.40
48988;DHT22;34799;51.440;-2.534;2023-05-29T13:08:09;19.10;97.40
48988;DHT22;34799;51.440;-2.534;2023-05-29T13:10:36;19.20;97.40
48988;DHT22;34799;51.440;-2.534;2023-05-29T13:13:03;19.20;97.60
48988;DHT22;34799;51.440;-2.534;2023-05-29T13:18:00;19.30;96.70
48988;DHT22;34799;51.440;-2.534;2023-05-29T13:20:27;19.60;97.20
48988;DHT22;34799;51.440;-2.534;2023-05-29T13:22:57;19.30;97.10
48988;DHT22;34799;51.440;-2.534;2023-05-29T13:25:24;19.30;97.00
48988;DHT22;34799;51.440;-2.534;2023-05-29T13:27:52;19.50;97.00
48988;DHT22;34799;51.440;-2.534;2023-05-29T13:30:19;19.50;97.00
48988;DHT22;34799;51.440;-2.534;2023-05-29T13:32:47;19.40;96.80
48988;DHT22;34799;51.440;-2.534;2023-05-29T13:35:14;19.50;96.60
48988;DHT22;34799;51.440;-2.534;2023-05-29T13:37:41;19.60;97.20
48988;DHT22;34799;51.440;-2.534;2023-05-29T13:40:10;19.80;96.90
48988;DHT22;34799;51.440;-2.534;2023-05-29T13:42:40;20.10;96.60
48988;DHT22;34799;51.440;-2.534;2023-05-29T13:45:07;20.20;96.20
48988;DHT22;34799;51.440;-2.534;2023-05-29T13:47:35;20.30;96.00
48988;DHT22;34799;51.440;-2.534;2023-05-29T13:50:03;20.50;96.30
48988;DHT22;34799;51.440;-2.534;2023-05-29T13:52:31;20.50;96.20
48988;DHT22;34799;51.440;-2.534;2023-05-29T13:54:58;20.40;95.90
48988;DHT22;34799;51.440;-2.534;2023-05-29T13:57:31;20.30;95.70
48988;DHT22;34799;51.440;-2.534;2023-05-29T13:59:58;20.40;95.60
48988;DHT22;34799;51.440;-2.534;2023-05-29T14:02:25;20.40;95.30
48988;DHT22;34799;51.440;-2.534;2023-05-29T14:04:53;20.50;95.90
48988;DHT22;34799;51.440;-2.534;2023-05-29T14:07:20;20.50;95.80
48988;DHT22;34799;51.440;-2.534;2023-05-29T14:09:47;20.60;95.90
48988;DHT22;34799;51.440;-2.534;2023-05-29T14:12:14;20.80;95.80
48988;DHT22;34799;51.440;-2.534;2023-05-29T14:14:42;21.00;95.70
48988;DHT22;34799;51.440;-2.534;2023-05-29T14:17:11;21.10;95.70
48988;DHT22;34799;51.440;-2.534;2023-05-29T14:19:39;21.30;95.20
48988;DHT22;34799;51.440;-2.534;2023-05-29T14:22:07;21.30;94.50
48988;DHT22;34799;51.440;-2.534;2023-05-29T14:24:34;21.30;95.00
48988;DHT22;34799;51.440;-2.534;2023-05-29T14:27:03;21.20;95.70
48988;DHT22;34799;51.440;-2.534;2023-05-29T14:29:30;21.20;95.50
48988;DHT22;34799;51.440;-2.534;2023-05-29T14:31:57;21.20;95.10
48988;DHT22;34799;51.440;-2.534;2023-05-29T14:34:24;21.20;95.30
48988;DHT22;34799;51.440;-2.534;2023-05-29T14:36:52;21.20;95.60
48988;DHT22;34799;51.440;-2.534;2023-05-29T14:39:20;21.20;95.70
48988;DHT22;34799;51.440;-2.534;2023-05-29T14:41:47;21.30;95.30
48988;DHT22;34799;51.440;-2.534;2023-05-29T14:44:14;21.30;95.40
48988;DHT22;34799;51.440;-2.534;2023-05-29T14:46:42;21.30;94.90
48988;DHT22;34799;51.440;-2.534;2023-05-29T14:49:09;21.10;95.00
48988;DHT22;34799;51.440;-2.534;2023-05-29T14:51:36;21.30;95.20
48988;DHT22;34799;51.440;-2.534;2023-05-29T14:54:03;21.40;95.30
48988;DHT22;34799;51.440;-2.534;2023-05-29T14:56:31;21.60;94.70
48988;DHT22;34799;51.440;-2.534;2023-05-29T14:58:58;21.40;95.00
48988;DHT22;34799;51.440;-2.534;2023-05-29T15:01:25;21.20;94.80
48988;DHT22;34799;51.440;-2.534;2023-05-29T15:03:52;20.90;95.00
48988;DHT22;34799;51.440;-2.534;2023-05-29T15:06:19;20.90;95.20
48988;DHT22;34799;51.440;-2.534;2023-05-29T15:08:48;21.10;95.10
48988;DHT22;34799;51.440;-2.534;2023-05-29T15:11:17;21.30;95.40
48988;DHT22;34799;51.440;-2.534;2023-05-29T15:13:46;21.60;94.90
48988;DHT22;34799;51.440;-2.534;2023-05-29T15:16:13;21.70;94.90
48988;DHT22;34799;51.440;-2.534;2023-05-29T15:18:40;21.70;94.60
48988;DHT22;34799;51.440;-2.534;2023-05-29T15:21:07;21.70;94.80
48988;DHT22;34799;51.440;-2.534;2023-05-29T15:23:34;21.70;95.00
48988;DHT22;34799;51.440;-2.534;2023-05-29T15:26:02;21.90;95.00
48988;DHT22;34799;51.440;-2.534;2023-05-29T15:28:31;22.00;94.60
48988;DHT22;34799;51.440;-2.534;2023-05-29T15:31:00;21.90;94.60
48988;DHT22;34799;51.440;-2.534;2023-05-29T15:33:27;21.80;94.70
48988;DHT22;34799;51.440;-2.534;2023-05-29T15:35:56;21.90;94.90
48988;DHT22;34799;51.440;-2.534;2023-05-29T15:38:23;22.10;94.50
48988;DHT22;34799;51.440;-2.534;2023-05-29T15:40:50;22.10;94.10
48988;DHT22;34799;51.440;-2.534;2023-05-29T15:43:17;22.00;94.40
48988;DHT22;34799;51.440;-2.534;2023-05-29T15:45:44;21.90;94.70
48988;DHT22;34799;51.440;-2.534;2023-05-29T15:48:11;22.00;94.50
48988;DHT22;34799;51.440;-2.534;2023-05-29T15:50:38;21.90;94.40